Time;durP1;ratioP1;P1;durP2;ratioP2;P2;SDS_P1;SDS_P2;PMS_P1;PMS_P2;Temp;Humidity;BMP_temperature;BMP_pressure;BME280_temperature;BME280_humidity;BME280_pressure;Samples;Min_cycle;Max_cycle;Signal;HPM_P1;HPM_P2
2022/01/01 00:02:16;;;;;;;11.37;9.80;;;;;;;11.20;100.00;100998.91;4954894;28;20235;-66
2022/01/01 00:04:42;;;;;;;10.67;8.57;;;;;;;11.32;100.00;100990.66;4966192;28;20175;-67
2022/01/01 00:07:11;;;;;;;8.57;7.77;;;;;;;11.26;100.00;100994.38;4962238;28;20184;-65
2022/01/01 00:09:38;;;;;;;8.40;7.20;;;;;;;11.16;100.00;100987.09;4972180;28;20216;-69
2022/01/01 00:12:04;;;;;;;8.03;6.83;;;;;;;11.10;100.00;100983.88;4980246;28;20218;-67
2022/01/01 00:14:29;;;;;;;6.83;6.13;;;;;;;11.14;100.00;100980.25;4968053;28;20186;-68
2022/01/01 00:16:55;;;;;;;9.37;6.13;;;;;;;11.21;100.00;100980.84;4975423;28;20318;-67
2022/01/01 00:19:21;;;;;;;8.73;7.10;;;;;;;11.17;100.00;100984.44;4965261;28;20726;-66
2022/01/01 00:21:46;;;;;;;7.50;6.50;;;;;;;11.19;100.00;100980.06;4967420;28;20304;-68
2022/01/01 00:24:12;;;;;;;8.00;7.10;;;;;;;11.14;100.00;100976.84;4976151;28;20227;-68
2022/01/01 00:26:37;;;;;;;7.50;6.70;;;;;;;11.13;100.00;100976.00;4973192;28;20207;-67
2022/01/01 00:29:03;;;;;;;7.03;6.23;;;;;;;11.15;100.00;100981.13;4971955;28;20282;-67
2022/01/01 00:31:29;;;;;;;6.23;5.63;;;;;;;11.20;100.00;100980.91;4952232;28;20563;-67
2022/01/01 00:33:54;;;;;;;8.53;5.83;;;;;;;11.14;100.00;100977.69;4978395;28;20180;-65
2022/01/01 00:36:19;;;;;;;8.33;5.70;;;;;;;11.01;100.00;100970.56;4974436;28;20262;-64
2022/01/01 00:38:45;;;;;;;7.50;5.87;;;;;;;11.00;100.00;100968.88;4976314;28;20207;-64
2022/01/01 00:41:10;;;;;;;7.30;5.50;;;;;;;10.91;100.00;100970.94;4971886;28;20218;-64
2022/01/01 00:43:35;;;;;;;5.70;5.13;;;;;;;10.85;100.00;100976.34;4980520;28;20184;-66
2022/01/01 00:46:01;;;;;;;5.57;4.97;;;;;;;10.89;100.00;100980.47;4971621;28;20187;-67
2022/01/01 00:48:26;;;;;;;7.60;5.93;;;;;;;10.92;100.00;100977.75;4969076;28;20200;-66
2022/01/01 00:50:51;;;;;;;6.80;6.10;;;;;;;11.04;100.00;100991.88;4960107;28;20223;-65
2022/01/01 00:53:17;;;;;;;8.23;6.47;;;;;;;11.06;100.00;100978.91;4961915;28;20208;-66
2022/01/01 00:55:42;;;;;;;7.67;6.73;;;;;;;10.93;100.00;100976.84;4967316;28;20700;-65
2022/01/01 00:58:08;;;;;;;8.10;6.40;;;;;;;10.92;100.00;100979.50;4961022;28;20303;-65
2022/01/01 01:00:33;;;;;;;9.70;6.87;;;;;;;10.93;100.00;100987.16;4961452;28;20230;-66
2022/01/01 01:02:58;;;;;;;9.03;6.20;;;;;;;10.79;100.00;100977.44;4977923;28;20189;-65
2022/01/01 01:05:24;;;;;;;6.50;5.77;;;;;;;10.92;100.00;100985.47;4962683;28;20189;-64
2022/01/01 01:07:49;;;;;;;6.37;5.70;;;;;;;10.94;100.00;100986.25;4986888;28;20271;-64
2022/01/01 01:10:15;;;;;;;5.97;5.37;;;;;;;10.95;100.00;100987.09;4977238;28;20216;-66
2022/01/01 01:12:47;;;;;;;6.30;5.40;;;;;;;11.04;100.00;100991.88;4968797;28;20168;-65
2022/01/01 01:15:17;;;;;;;7.73;5.73;;;;;;;11.05;100.00;100990.97;4985637;28;20189;-64
2022/01/01 01:17:44;;;;;;;6.40;5.63;;;;;;;11.08;100.00;100987.41;4961137;28;20204;-66
2022/01/01 01:20:10;;;;;;;5.70;5.10;;;;;;;11.10;100.00;100991.59;4951447;28;20653;-66
2022/01/01 01:22:35;;;;;;;5.83;5.23;;;;;;;10.98;100.00;100999.84;4975783;28;20181;-65
2022/01/01 01:25:01;;;;;;;6.43;5.30;;;;;;;11.08;100.00;100990.81;4969696;28;20183;-64
2022/01/01 01:27:28;;;;;;;5.30;4.37;;;;;;;11.06;100.00;101002.91;4971896;28;20192;-64
2022/01/01 01:29:53;;;;;;;6.33;4.70;;;;;;;11.03;100.00;100991.94;4972831;28;20223;-64
2022/01/01 01:32:19;;;;;;;5.27;4.77;;;;;;;11.18;100.00;100999.00;4969962;28;20254;-65
2022/01/01 01:34:44;;;;;;;7.60;4.67;;;;;;;11.15;100.00;100999.13;4962756;28;20188;-64
2022/01/01 01:37:09;;;;;;;5.60;4.90;;;;;;;11.06;100.00;101002.91;4960625;28;20235;-64
2022/01/01 01:39:35;;;;;;;5.37;4.73;;;;;;;11.19;100.00;101003.25;4966883;28;20227;-64
2022/01/01 01:42:00;;;;;;;5.13;4.53;;;;;;;11.17;100.00;100999.88;4966166;28;20220;-63
2022/01/01 01:44:33;;;;;;;8.17;4.53;;;;;;;11.16;100.00;101003.38;4981253;28;20186;-64
2022/01/01 01:47:02;;;;;;;4.47;3.87;;;;;;;11.11;100.00;100998.44;4993460;28;20262;-64
2022/01/01 01:49:29;;;;;;;4.60;4.10;;;;;;;11.20;100.00;101004.06;4980160;28;20243;-65
2022/01/01 01:51:55;;;;;;;4.10;3.57;;;;;;;11.06;100.00;101007.25;4965310;28;20278;-62
2022/01/01 01:54:21;;;;;;;4.50;3.93;;;;;;;11.15;100.00;101009.44;4962947;28;20195;-65
2022/01/01 01:56:47;;;;;;;5.20;4.00;;;;;;;11.21;100.00;101009.19;4966538;28;20258;-62
2022/01/01 01:59:14;;;;;;;5.60;3.97;;;;;;;11.16;100.00;101005.94;4961639;28;20263;-63
2022/01/01 02:01:39;;;;;;;5.17;4.00;;;;;;;11.32;100.00;101008.69;4938029;28;20246;-63
2022/01/01 02:04:05;;;;;;;4.13;3.67;;;;;;;11.33;100.00;101009.56;4943599;28;20271;-63
2022/01/01 02:06:30;;;;;;;6.03;3.93;;;;;;;11.37;100.00;101004.19;4949058;28;20217;-63
2022/01/01 02:08:56;;;;;;;4.80;3.83;;;;;;;11.35;100.00;100998.28;4942940;28;20233;-63
2022/01/01 02:11:23;;;;;;;3.93;3.53;;;;;;;11.20;100.00;100999.78;4954619;28;20220;-64
2022/01/01 02:18:53;;;;;;;5.33;4.23;;;;;;;11.00;100.00;101003.16;4985634;28;20246;-63
2022/01/01 02:21:20;;;;;;;4.83;3.50;;;;;;;10.89;100.00;101005.34;4992632;28;20314;-64
2022/01/01 02:23:47;;;;;;;5.63;4.17;;;;;;;10.78;100.00;101004.06;4989058;28;20179;-65
2022/01/01 02:26:15;;;;;;;5.27;4.00;;;;;;;10.70;100.00;101003.53;4983031;28;20175;-64
2022/01/01 02:28:46;;;;;;;5.00;4.23;;;;;;;10.61;100.00;100997.03;4975887;28;20195;-64
2022/01/01 02:31:13;;;;;;;4.97;4.00;;;;;;;10.65;100.00;100998.59;4973756;28;20281;-64
2022/01/01 02:33:38;;;;;;;6.13;4.10;;;;;;;10.53;100.00;101005.97;4979004;28;20196;-64
2022/01/01 02:36:05;;;;;;;8.60;4.63;;;;;;;10.51;100.00;101002.63;4973064;28;20199;-64
2022/01/01 02:38:35;;;;;;;6.53;5.23;;;;;;;10.42;100.00;101007.22;4972768;28;20208;-64
2022/01/01 02:41:00;;;;;;;4.73;4.30;;;;;;;10.45;100.00;100995.97;4970148;28;20245;-64
2022/01/01 02:43:26;;;;;;;6.20;5.07;;;;;;;10.41;100.00;100995.25;4980350;28;20586;-64
2022/01/01 02:45:52;;;;;;;5.73;4.97;;;;;;;10.34;100.00;100997.22;4972797;28;20660;-64
2022/01/01 02:48:18;;;;;;;6.23;5.63;;;;;;;10.32;100.00;101004.16;4972504;28;20257;-64
2022/01/01 02:50:43;;;;;;;6.17;4.87;;;;;;;10.27;100.00;100997.50;4967983;28;20262;-64
2022/01/01 02:53:13;;;;;;;8.47;5.47;;;;;;;10.20;100.00;100994.34;4982363;28;20286;-64
2022/01/01 02:55:39;;;;;;;9.27;6.07;;;;;;;10.15;100.00;100991.94;4972463;28;20187;-64
2022/01/01 02:58:04;;;;;;;9.13;6.20;;;;;;;10.17;100.00;100997.88;4972306;28;20212;-64
2022/01/01 03:00:30;;;;;;;8.13;5.80;;;;;;;10.09;100.00;100999.88;4966152;28;20605;-64
2022/01/01 03:02:55;;;;;;;9.83;6.27;;;;;;;10.08;100.00;101000.78;4983769;28;20203;-64
2022/01/01 03:05:20;;;;;;;8.97;6.17;;;;;;;10.06;100.00;101002.59;4972159;28;20176;-64
2022/01/01 03:07:46;;;;;;;10.27;5.83;;;;;;;10.08;100.00;100998.19;4972369;28;20204;-64
2022/01/01 03:10:11;;;;;;;10.20;6.57;;;;;;;10.16;100.00;101001.31;4963523;28;20180;-64
2022/01/01 03:12:36;;;;;;;9.17;6.90;;;;;;;10.12;100.00;101004.06;4971012;28;20256;-63
2022/01/01 03:15:02;;;;;;;7.47;6.50;;;;;;;10.26;100.00;101013.84;4971202;28;20183;-64
2022/01/01 03:17:27;;;;;;;7.13;5.80;;;;;;;10.40;100.00;100996.16;4972170;28;20617;-64
2022/01/01 03:19:52;;;;;;;8.80;6.20;;;;;;;10.55;100.00;101005.00;4972255;28;20180;-64
2022/01/01 03:22:18;;;;;;;8.67;6.93;;;;;;;10.55;100.00;100999.03;4977128;28;20234;-64
2022/01/01 03:24:43;;;;;;;8.80;7.10;;;;;;;10.59;100.00;100992.84;4972413;28;20227;-64
2022/01/01 03:27:08;;;;;;;8.20;7.37;;;;;;;10.55;100.00;100993.88;4971848;28;20210;-64
2022/01/01 03:29:34;;;;;;;8.87;7.00;;;;;;;10.58;100.00;100996.31;4971910;28;20607;-64
2022/01/01 03:31:59;;;;;;;10.10;7.63;;;;;;;10.63;100.00;101002.09;4976438;28;20945;-63
2022/01/01 03:34:25;;;;;;;12.23;6.83;;;;;;;10.61;100.00;101002.19;4972037;28;20277;-64
2022/01/01 03:36:50;;;;;;;12.03;7.27;;;;;;;10.72;100.00;101012.03;4971844;28;20188;-64
2022/01/01 03:39:16;;;;;;;9.90;7.10;;;;;;;10.77;100.00;101017.00;4971614;28;20303;-64
2022/01/01 03:41:41;;;;;;;8.63;7.33;;;;;;;10.62;100.00;101018.47;4974061;28;20559;-64
2022/01/01 03:44:06;;;;;;;11.10;7.80;;;;;;;10.63;100.00;101013.25;4974177;28;20637;-64
2022/01/01 03:46:32;;;;;;;8.70;7.73;;;;;;;10.69;100.00;101025.03;4971584;28;20222;-64
2022/01/01 03:48:57;;;;;;;11.87;8.20;;;;;;;10.59;100.00;101019.44;4971660;28;20195;-64
2022/01/01 03:51:22;;;;;;;9.30;7.50;;;;;;;10.69;100.00;101027.59;4971740;28;20724;-64
2022/01/01 03:53:47;;;;;;;10.80;8.03;;;;;;;10.73;100.00;101018.00;4976345;28;20665;-64
2022/01/01 03:56:14;;;;;;;10.10;7.90;;;;;;;10.75;100.00;101023.94;4971292;28;20540;-64
2022/01/01 03:58:40;;;;;;;9.07;8.00;;;;;;;10.86;100.00;101023.53;4971302;28;20291;-64
2022/01/01 04:01:06;;;;;;;9.70;8.23;;;;;;;10.95;100.00;101023.97;4959276;28;20230;-64
2022/01/01 04:03:31;;;;;;;9.60;7.83;;;;;;;10.97;100.00;101021.34;4978620;28;20213;-64
2022/01/01 04:05:56;;;;;;;10.47;7.80;;;;;;;10.88;100.00;101027.69;4971477;28;20188;-64
2022/01/01 04:08:21;;;;;;;13.30;7.40;;;;;;;10.98;100.00;101026.41;4969927;28;20604;-64
2022/01/01 04:10:47;;;;;;;11.00;8.33;;;;;;;10.92;100.00;101028.41;4967030;28;20235;-64
2022/01/01 04:13:12;;;;;;;10.90;7.67;;;;;;;11.06;100.00;101022.69;4980518;28;20290;-63
2022/01/01 04:15:39;;;;;;;9.73;8.60;;;;;;;10.99;100.00;101024.69;4965566;28;20289;-64
2022/01/01 04:18:12;;;;;;;9.43;8.17;;;;;;;11.03;100.00;101033.13;4981492;28;20254;-64
2022/01/01 04:20:39;;;;;;;9.30;8.30;;;;;;;11.18;100.00;101026.50;4965726;28;20333;-64
2022/01/01 04:23:09;;;;;;;11.93;9.27;;;;;;;11.08;100.00;101024.28;4976672;28;20184;-64
2022/01/01 04:25:36;;;;;;;12.00;9.77;;;;;;;11.19;100.00;101026.44;4970454;28;20172;-63
2022/01/01 04:28:01;;;;;;;13.83;9.30;;;;;;;11.05;100.00;101041.59;4971051;28;20216;-64
2022/01/01 04:30:29;;;;;;;10.53;9.43;;;;;;;11.05;100.00;101031.31;4944649;28;20273;-63
2022/01/01 04:32:55;;;;;;;13.10;9.47;;;;;;;10.99;100.00;101042.72;4983178;28;20539;-64
2022/01/01 04:35:20;;;;;;;11.83;9.37;;;;;;;11.00;100.00;101035.81;4970893;28;20221;-64
2022/01/01 04:37:46;;;;;;;12.83;9.97;;;;;;;11.10;100.00;101047.41;4970995;28;20216;-64
2022/01/01 04:40:12;;;;;;;12.90;10.73;;;;;;;11.02;100.00;101036.59;4961794;28;20179;-64
2022/01/01 04:42:38;;;;;;;16.03;10.83;;;;;;;10.97;100.00;101044.50;4984612;28;20191;-64
2022/01/01 04:45:04;;;;;;;13.70;10.87;;;;;;;10.92;100.00;101044.69;4970772;28;20648;-64
2022/01/01 04:47:29;;;;;;;16.80;11.30;;;;;;;10.95;100.00;101042.00;4970880;28;20250;-64
2022/01/01 04:49:54;;;;;;;14.13;11.47;;;;;;;10.82;100.00;101039.06;4971006;28;20172;-64
2022/01/01 04:52:20;;;;;;;15.00;12.47;;;;;;;10.92;100.00;101052.41;4974170;28;20940;-64
2022/01/01 04:54:45;;;;;;;15.37;11.37;;;;;;;10.94;100.00;101060.06;4970594;28;20176;-64
2022/01/01 04:57:12;;;;;;;13.97;12.20;;;;;;;10.87;100.00;101059.47;4970814;28;20720;-64
2022/01/01 04:59:39;;;;;;;13.87;11.37;;;;;;;10.89;100.00;101060.28;4970672;28;20231;-64
2022/01/01 05:02:05;;;;;;;14.87;12.07;;;;;;;10.86;100.00;101054.41;4975942;28;20231;-64
2022/01/01 05:04:30;;;;;;;16.03;12.37;;;;;;;10.77;100.00;101061.59;4970694;28;20264;-64
2022/01/01 05:06:56;;;;;;;13.20;11.83;;;;;;;10.63;100.00;101059.56;4970752;28;20213;-64
2022/01/01 05:09:22;;;;;;;14.73;12.90;;;;;;;10.75;100.00;101065.13;4970704;28;20567;-64
2022/01/01 05:11:47;;;;;;;15.37;12.57;;;;;;;10.74;100.00;101059.16;4962519;28;20234;-64
2022/01/01 05:14:13;;;;;;;14.80;13.13;;;;;;;10.74;100.00;101056.56;4972444;28;20648;-64
2022/01/01 05:16:40;;;;;;;16.70;12.90;;;;;;;10.80;100.00;101047.75;4970785;28;20176;-63
2022/01/01 05:19:06;;;;;;;18.47;13.43;;;;;;;10.76;100.00;101049.59;4970524;28;20303;-64
2022/01/01 05:21:34;;;;;;;19.43;13.07;;;;;;;10.69;100.00;101066.19;4971992;28;20227;-64
2022/01/01 05:24:00;;;;;;;16.33;12.90;;;;;;;10.66;100.00;101064.56;4974006;28;20177;-64
2022/01/01 05:26:25;;;;;;;15.60;12.83;;;;;;;10.54;100.00;101066.81;4970393;28;20196;-64
2022/01/01 05:28:51;;;;;;;14.97;12.80;;;;;;;10.43;100.00;101065.50;4970521;28;20196;-64
2022/01/01 05:31:19;;;;;;;16.00;13.30;;;;;;;10.49;100.00;101064.41;4969996;28;20285;-64
2022/01/01 05:33:45;;;;;;;17.87;13.43;;;;;;;10.51;100.00;101065.19;4975712;28;20184;-64
2022/01/01 05:36:10;;;;;;;17.17;14.37;;;;;;;10.63;100.00;101069.00;4970484;28;20235;-64
2022/01/01 05:38:35;;;;;;;17.50;12.90;;;;;;;10.73;100.00;101074.63;4972821;28;20240;-65
2022/01/01 05:41:00;;;;;;;19.10;13.47;;;;;;;10.64;100.00;101068.97;4971237;28;20230;-64
2022/01/01 05:43:26;;;;;;;15.60;12.93;;;;;;;10.53;100.00;101058.25;4981533;28;20569;-63
2022/01/01 05:45:51;;;;;;;15.17;13.43;;;;;;;10.55;100.00;101065.91;4973891;28;20267;-63
2022/01/01 05:48:16;;;;;;;15.90;12.83;;;;;;;10.63;100.00;101071.56;4973885;28;20232;-64
2022/01/01 05:50:42;;;;;;;15.37;13.33;;;;;;;10.69;100.00;101063.63;4968948;28;20231;-64
2022/01/01 05:53:08;;;;;;;15.53;13.43;;;;;;;10.59;100.00;101058.03;4983507;28;20226;-64
2022/01/01 05:55:34;;;;;;;15.13;13.43;;;;;;;10.66;100.00;101050.88;4973352;28;20652;-64
2022/01/01 05:57:59;;;;;;;13.77;11.73;;;;;;;10.27;100.00;101044.63;4972185;28;20234;-63
2022/01/01 06:00:24;;;;;;;13.43;12.00;;;;;;;10.21;100.00;101038.88;4966398;28;20311;-63
2022/01/01 06:02:50;;;;;;;17.27;12.93;;;;;;;10.11;100.00;101030.66;4985550;28;20550;-64
2022/01/01 06:05:15;;;;;;;15.10;12.93;;;;;;;10.27;100.00;101033.50;4973469;28;20622;-64
2022/01/01 06:07:40;;;;;;;17.47;13.60;;;;;;;10.38;100.00;101040.84;4974538;28;20190;-64
2022/01/01 06:10:06;;;;;;;15.40;12.90;;;;;;;10.24;100.00;101034.44;4969251;28;20175;-63
2022/01/01 06:12:31;;;;;;;18.30;12.50;;;;;;;10.29;100.00;101036.84;5007362;28;20167;-64
2022/01/01 06:14:56;;;;;;;16.97;13.30;;;;;;;10.43;100.00;101031.19;4992576;28;20613;-64
2022/01/01 06:17:22;;;;;;;17.93;12.77;;;;;;;10.49;100.00;101042.09;4992678;28;20195;-64
2022/01/01 06:19:47;;;;;;;15.70;13.27;;;;;;;10.19;100.00;101038.94;4992613;28;20199;-64
2022/01/01 06:22:13;;;;;;;15.00;13.37;;;;;;;10.15;100.00;101035.63;4983027;28;20301;-64
2022/01/01 06:24:39;;;;;;;15.30;13.13;;;;;;;10.27;100.00;101036.06;4992556;28;20190;-64
2022/01/01 06:27:04;;;;;;;16.37;14.00;;;;;;;10.31;100.00;101032.50;4975154;28;20544;-64
2022/01/01 06:29:31;;;;;;;18.70;14.40;;;;;;;10.22;100.00;101022.56;4973032;28;20222;-64
2022/01/01 06:31:56;;;;;;;15.77;13.83;;;;;;;9.90;100.00;101028.00;4977517;28;20713;-64
2022/01/01 06:34:22;;;;;;;17.83;14.53;;;;;;;9.93;100.00;101022.75;4973401;28;20176;-64
2022/01/01 06:36:47;;;;;;;17.13;14.43;;;;;;;9.82;100.00;101020.59;4972923;28;20180;-64
2022/01/01 06:39:12;;;;;;;17.70;14.63;;;;;;;9.78;100.00;101028.47;4972922;28;20244;-64
2022/01/01 06:41:37;;;;;;;17.80;14.33;;;;;;;9.73;100.00;101035.50;4974575;28;20301;-64
2022/01/01 06:44:03;;;;;;;21.73;14.23;;;;;;;9.74;100.00;101055.16;4975643;28;20187;-65
2022/01/01 06:46:28;;;;;;;17.77;14.17;;;;;;;9.60;100.00;101058.22;4972731;28;20188;-64
2022/01/01 06:48:53;;;;;;;18.43;14.70;;;;;;;9.64;100.00;101065.75;4972690;28;20196;-64
2022/01/01 06:51:19;;;;;;;18.13;14.77;;;;;;;9.67;100.00;101073.38;4972155;28;20597;-64
2022/01/01 06:53:44;;;;;;;18.27;14.60;;;;;;;9.57;100.00;101077.13;4977742;28;20211;-63
2022/01/01 06:56:10;;;;;;;19.57;15.10;;;;;;;9.61;100.00;101080.44;4971685;28;20210;-64
2022/01/01 06:58:37;;;;;;;19.27;15.10;;;;;;;9.70;100.00;101085.28;4969670;28;20208;-64
2022/01/01 07:01:03;;;;;;;17.87;15.03;;;;;;;9.72;100.00;101088.59;4978320;28;20291;-64
2022/01/01 07:03:28;;;;;;;21.80;15.93;;;;;;;9.76;100.00;101081.63;4999054;28;20179;-64
2022/01/01 07:05:54;;;;;;;18.27;13.83;;;;;;;9.82;100.00;101086.56;4991685;28;20183;-64
2022/01/01 07:08:19;;;;;;;18.30;14.70;;;;;;;9.73;100.00;101107.44;4992232;28;20219;-64
2022/01/01 07:10:45;;;;;;;19.27;15.30;;;;;;;9.69;100.00;101109.28;4984209;28;20226;-64
2022/01/01 07:13:15;;;;;;;19.87;15.43;;;;;;;9.73;100.00;101115.97;4989626;28;20172;-64
2022/01/01 07:15:41;;;;;;;19.30;15.33;;;;;;;9.75;100.00;101121.91;4991232;28;20194;-64
2022/01/01 07:18:06;;;;;;;18.97;15.27;;;;;;;9.84;100.00;101131.03;4991488;28;20207;-64
2022/01/01 07:20:32;;;;;;;18.43;14.30;;;;;;;9.82;100.00;101136.22;4985048;28;20653;-64
2022/01/01 07:22:57;;;;;;;17.47;14.10;;;;;;;9.83;100.00;101140.47;5002812;28;20211;-64
2022/01/01 07:25:22;;;;;;;19.13;15.27;;;;;;;9.98;100.00;101143.38;4988580;28;20183;-64
2022/01/01 07:27:48;;;;;;;17.63;14.33;;;;;;;9.98;100.00;101146.78;4971896;28;20267;-64
2022/01/01 07:30:13;;;;;;;18.03;14.43;;;;;;;9.88;100.00;101152.31;4963346;28;20539;-64
2022/01/01 07:32:40;;;;;;;18.63;14.53;;;;;;;9.96;100.00;101142.59;4985318;28;20267;-64
2022/01/01 07:35:06;;;;;;;17.13;14.67;;;;;;;10.06;100.00;101146.53;4971520;28;20183;-64
2022/01/01 07:37:31;;;;;;;16.93;14.60;;;;;;;10.06;100.00;101149.13;4971715;28;20180;-64
2022/01/01 07:39:56;;;;;;;15.77;12.70;;;;;;;10.08;100.00;101144.72;4972046;28;20176;-64
2022/01/01 07:42:22;;;;;;;17.97;14.23;;;;;;;9.99;100.00;101145.06;4977003;28;20297;-64
2022/01/01 07:44:47;;;;;;;16.60;13.90;;;;;;;10.03;100.00;101156.91;4971455;28;20172;-63
2022/01/01 07:47:13;;;;;;;15.67;13.97;;;;;;;10.04;100.00;101150.88;4971743;28;20191;-64
2022/01/01 07:49:38;;;;;;;16.97;14.40;;;;;;;10.08;100.00;101151.63;4971577;28;20192;-63
2022/01/01 07:52:03;;;;;;;19.03;15.43;;;;;;;10.05;100.00;101156.84;4976447;28;20227;-64
2022/01/01 07:54:29;;;;;;;19.53;15.27;;;;;;;10.02;100.00;101157.81;4971576;28;20218;-64
2022/01/01 07:56:54;;;;;;;18.50;15.67;;;;;;;10.15;100.00;101163.38;4971669;28;20194;-64
2022/01/01 07:59:19;;;;;;;19.40;15.70;;;;;;;10.15;100.00;101165.94;4971364;28;20587;-64
2022/01/01 08:01:44;;;;;;;18.90;15.83;;;;;;;10.22;100.00;101167.41;4963799;28;20230;-64
2022/01/01 08:04:10;;;;;;;20.63;15.87;;;;;;;10.25;100.00;101176.72;4973470;28;20183;-64
2022/01/01 08:06:36;;;;;;;17.73;15.20;;;;;;;10.25;100.00;101169.03;4971472;28;20202;-64
2022/01/01 08:09:01;;;;;;;20.97;15.53;;;;;;;10.34;100.00;101166.97;4971357;28;20255;-64
2022/01/01 08:11:27;;;;;;;20.67;15.93;;;;;;;10.22;100.00;101162.25;4972423;28;20269;-64
2022/01/01 08:13:53;;;;;;;20.40;16.50;;;;;;;10.23;100.00;101168.22;4975625;28;20184;-64
2022/01/01 08:16:18;;;;;;;18.40;15.53;;;;;;;10.19;100.00;101170.06;4970954;28;20350;-64
2022/01/01 08:18:43;;;;;;;17.90;15.27;;;;;;;10.19;100.00;101175.22;4976374;28;20331;-64
2022/01/01 08:21:09;;;;;;;17.93;15.73;;;;;;;10.29;100.00;101178.28;4969719;28;20274;-64
2022/01/01 08:23:34;;;;;;;19.50;15.93;;;;;;;10.13;100.00;101173.72;4977601;28;20183;-64
2022/01/01 08:26:00;;;;;;;18.97;15.77;;;;;;;10.37;100.00;101166.03;4971136;28;20225;-64
2022/01/01 08:28:26;;;;;;;21.67;16.30;;;;;;;10.53;100.00;101175.75;4970941;28;20262;-64
2022/01/01 08:30:51;;;;;;;18.63;14.57;;;;;;;10.51;100.00;101169.84;4946990;28;20286;-64
2022/01/01 08:33:16;;;;;;;17.30;15.50;;;;;;;10.59;100.00;101176.38;4970983;28;20667;-64
2022/01/01 08:35:42;;;;;;;17.87;14.90;;;;;;;10.61;100.00;101172.00;4951472;28;20182;-64
2022/01/01 08:38:07;;;;;;;17.30;14.50;;;;;;;10.60;100.00;101166.91;4951730;29;20208;-64
2022/01/01 08:40:33;;;;;;;17.93;14.60;;;;;;;10.71;100.00;101156.22;4949850;28;20688;-64
2022/01/01 08:42:58;;;;;;;17.33;15.07;;;;;;;10.56;100.00;101148.16;4981697;28;20497;-64
2022/01/01 08:45:24;;;;;;;18.40;15.53;;;;;;;10.58;100.00;101146.38;4970653;28;20181;-64
2022/01/01 08:47:50;;;;;;;20.37;15.43;;;;;;;10.72;100.00;101147.59;4971023;28;20199;-65
2022/01/01 08:50:16;;;;;;;19.73;15.63;;;;;;;10.92;100.00;101145.06;4962806;28;20207;-64
2022/01/01 08:52:42;;;;;;;16.90;14.70;;;;;;;11.09;100.00;101149.56;4983818;28;20180;-65
2022/01/01 08:55:08;;;;;;;17.60;14.87;;;;;;;11.11;100.00;101142.63;4970679;28;20180;-64
2022/01/01 08:57:34;;;;;;;18.83;15.03;;;;;;;11.12;100.00;101140.88;4971895;28;20195;-64
2022/01/01 09:00:01;;;;;;;18.77;14.67;;;;;;;11.19;100.00;101132.00;4973379;28;20184;-64
2022/01/01 09:02:26;;;;;;;17.23;14.63;;;;;;;11.24;100.00;101131.84;4963586;28;20716;-64
2022/01/01 09:04:52;;;;;;;17.93;15.17;;;;;;;11.13;100.00;101143.38;4972207;28;20172;-65
2022/01/01 09:07:18;;;;;;;16.67;14.27;;;;;;;11.15;100.00;101143.34;4972681;28;20211;-64
2022/01/01 09:09:44;;;;;;;16.70;14.87;;;;;;;11.23;100.00;101146.44;4973335;28;20195;-64
2022/01/01 09:12:10;;;;;;;16.97;14.30;;;;;;;11.20;100.00;101149.16;4975364;28;20228;-63
2022/01/01 09:14:36;;;;;;;18.63;14.70;;;;;;;11.28;100.00;101146.25;4973395;28;20245;-63
2022/01/01 09:17:03;;;;;;;14.43;12.90;;;;;;;11.43;100.00;101137.88;4976145;28;20176;-63
2022/01/01 09:19:28;;;;;;;18.67;15.40;;;;;;;11.62;100.00;101150.84;4975965;28;20342;-62
2022/01/01 09:21:54;;;;;;;17.27;14.47;;;;;;;11.51;100.00;101150.47;4975233;28;20235;-62
2022/01/01 09:24:19;;;;;;;18.97;14.67;;;;;;;11.54;100.00;101139.19;4982615;28;20245;-63
2022/01/01 09:26:45;;;;;;;19.80;15.30;;;;;;;11.66;99.71;101146.41;4971239;28;20200;-63
2022/01/01 09:29:10;;;;;;;17.37;15.13;;;;;;;11.54;100.00;101154.66;4976985;28;20207;-63
2022/01/01 09:31:40;;;;;;;17.27;14.67;;;;;;;11.50;100.00;101153.09;4973519;28;20223;-62
2022/01/01 09:34:05;;;;;;;17.67;13.77;;;;;;;11.56;100.00;101157.97;4978031;28;20271;-62
2022/01/01 09:36:32;;;;;;;16.13;13.30;;;;;;;11.55;100.00;101158.91;4976813;28;20738;-62
2022/01/01 09:38:57;;;;;;;17.70;15.33;;;;;;;11.60;100.00;101168.09;4978548;28;20211;-62
2022/01/01 09:41:23;;;;;;;16.33;14.40;;;;;;;11.43;100.00;101161.06;4977571;28;20639;-62
2022/01/01 09:43:48;;;;;;;16.77;13.87;;;;;;;11.44;100.00;101161.91;4979726;28;20180;-63
2022/01/01 09:46:14;;;;;;;19.20;14.43;;;;;;;11.62;100.00;101162.88;4976614;28;20188;-63
2022/01/01 09:48:40;;;;;;;16.03;14.33;;;;;;;11.66;99.48;101159.28;4972308;28;20204;-62
2022/01/01 09:51:06;;;;;;;15.93;13.50;;;;;;;11.76;99.05;101157.16;4970840;28;20223;-63
2022/01/01 09:53:32;;;;;;;17.23;13.90;;;;;;;11.82;98.51;101151.75;4980411;28;20190;-63
2022/01/01 09:56:01;;;;;;;15.80;14.03;;;;;;;11.86;98.29;101153.28;4978728;28;20180;-63
2022/01/01 09:58:28;;;;;;;15.33;13.57;;;;;;;11.98;97.39;101140.78;4979701;28;20208;-63
2022/01/01 10:00:54;;;;;;;16.67;12.70;;;;;;;11.89;97.71;101142.00;4978375;28;20687;-63
2022/01/01 10:03:32;;;;;;;14.77;12.63;;;;;;;12.02;97.60;101145.75;5001567;28;20184;-63
2022/01/01 10:06:03;;;;;;;17.70;14.37;;;;;;;12.16;96.16;101139.97;4992941;28;20179;-63
2022/01/01 10:08:29;;;;;;;17.17;13.87;;;;;;;11.98;96.71;101141.59;4992929;28;20223;-63
2022/01/01 10:10:55;;;;;;;18.30;14.27;;;;;;;11.98;97.15;101138.22;4984773;28;20312;-63
2022/01/01 10:13:29;;;;;;;15.13;13.07;;;;;;;11.83;97.27;101140.50;5001043;28;20184;-63
2022/01/01 10:15:56;;;;;;;17.37;13.53;;;;;;;11.86;98.39;101142.13;4992923;28;20179;-62
2022/01/01 10:18:35;;;;;;;16.03;13.47;;;;;;;11.66;98.90;101148.97;4992773;28;20207;-63
2022/01/01 10:21:08;;;;;;;16.53;14.53;;;;;;;11.97;97.76;101154.56;4969465;28;20238;-64
2022/01/01 10:23:34;;;;;;;19.00;14.30;;;;;;;11.95;97.86;101154.63;4976756;28;20189;-64
2022/01/01 10:29:26;;;;;;;14.40;12.87;;;;;;;11.89;97.03;101139.41;4981359;28;20198;-62
2022/01/01 10:32:12;;;;;;;16.23;12.53;;;;;;;11.73;97.59;101141.81;4991438;28;20226;-62
2022/01/01 10:34:43;;;;;;;19.17;12.83;;;;;;;12.07;96.82;101146.38;4992011;28;20218;-62
2022/01/01 10:37:10;;;;;;;16.10;13.47;;;;;;;12.29;96.15;101153.16;4992269;28;20187;-62
2022/01/01 10:39:48;;;;;;;15.83;12.60;;;;;;;11.96;94.93;101151.19;4966347;28;20216;-63
2022/01/01 10:42:13;;;;;;;14.47;12.43;;;;;;;12.00;95.66;101152.69;4962565;28;20223;-62
2022/01/01 10:44:39;;;;;;;14.60;13.07;;;;;;;12.01;95.61;101153.56;4954288;28;20765;-63
2022/01/01 10:47:06;;;;;;;17.53;13.30;;;;;;;11.99;95.53;101142.47;4954108;28;20188;-63
2022/01/01 10:50:02;;;;;;;16.53;13.23;;;;;;;12.16;95.79;101139.97;4974002;28;20664;-64
2022/01/01 10:52:29;;;;;;;16.07;13.00;;;;;;;12.10;95.60;101140.25;4961075;28;20224;-63
2022/01/01 10:54:58;;;;;;;15.87;12.97;;;;;;;12.25;95.15;101142.16;4961932;28;20177;-63
2022/01/01 10:57:38;;;;;;;15.83;12.73;;;;;;;12.12;94.43;101146.19;4978534;28;20708;-63
2022/01/01 11:00:06;;;;;;;13.83;12.20;;;;;;;12.30;94.92;101141.09;4982402;28;20339;-63
2022/01/01 11:02:33;;;;;;;16.50;13.13;;;;;;;12.38;94.74;101141.59;5003715;28;20314;-63
2022/01/01 11:04:59;;;;;;;14.37;11.83;;;;;;;12.25;95.40;101137.00;4975799;28;20253;-63
2022/01/01 11:07:27;;;;;;;12.23;10.43;;;;;;;12.37;94.16;101135.59;4954213;28;20235;-63
2022/01/01 11:09:55;;;;;;;11.83;10.07;;;;;;;12.59;93.26;101135.44;4989998;28;20246;-62
2022/01/01 11:12:22;;;;;;;12.53;10.47;;;;;;;12.69;91.63;101140.16;4996343;28;20224;-63
2022/01/01 11:14:48;;;;;;;11.40;9.80;;;;;;;12.94;90.82;101134.69;4991402;28;20179;-62